Time;durP1;ratioP1;P1;durP2;ratioP2;P2;SDS_P1;SDS_P2;PMS_P1;PMS_P2;Temp;Humidity;BMP_temperature;BMP_pressure;BME280_temperature;BME280_humidity;BME280_pressure;Samples;Min_cycle;Max_cycle;Signal;HPM_P1;HPM_P2
2022/04/30 00:00:40;;;;;;;;;;;;;;;24.47;9.71;101447.53;5117839;27;19915;-77
2022/04/30 00:03:06;;;;;;;;;;;;;;;24.46;9.77;101438.53;5136090;27;19915;-80
2022/04/30 00:05:32;;;;;;;;;;;;;;;24.46;9.54;101440.44;5117538;27;19919;-76
2022/04/30 00:07:58;;;;;;;;;;;;;;;24.44;9.68;101443.41;5136007;27;19916;-79
2022/04/30 00:10:23;;;;;;;;;;;;;;;24.45;9.76;101445.06;5117566;27;19915;-75
2022/04/30 00:12:49;;;;;;;;;;;;;;;24.44;9.64;101440.69;5135718;27;19960;-79
2022/04/30 00:15:14;;;;;;;;;;;;;;;24.43;9.74;101439.03;5135609;27;19922;-77
2022/04/30 00:17:39;;;;;;;;;;;;;;;24.44;9.77;101446.16;5135638;27;19922;-78
2022/04/30 00:20:05;;;;;;;;;;;;;;;24.43;9.90;101444.50;5135868;27;19922;-78
2022/04/30 00:22:31;;;;;;;;;;;;;;;24.44;9.56;101437.97;5100372;27;19919;-77
2022/04/30 00:24:56;;;;;;;;;;;;;;;24.43;9.78;101455.41;5113636;28;19985;-79
2022/04/30 00:27:21;;;;;;;;;;;;;;;24.42;9.85;101451.03;5114467;28;20018;-76
2022/04/30 00:29:46;;;;;;;;;;;;;;;24.42;9.57;101447.47;5114842;28;20365;-79
2022/04/30 00:32:12;;;;;;;;;;;;;;;24.42;9.71;101451.03;5115028;28;19927;-76
2022/04/30 00:34:37;;;;;;;;;;;;;;;24.42;9.84;101444.75;5114907;28;20341;-77
2022/04/30 00:37:03;;;;;;;;;;;;;;;24.41;9.59;101449.38;5114633;28;20002;-79
2022/04/30 00:39:32;;;;;;;;;;;;;;;24.39;9.90;101448.81;5114535;28;19916;-76
2022/04/30 00:41:57;;;;;;;;;;;;;;;24.41;9.84;101454.84;5114953;28;19995;-77
2022/04/30 00:44:23;;;;;;;;;;;;;;;24.40;10.00;101450.47;5114762;28;20338;-76
2022/04/30 00:46:48;;;;;;;;;;;;;;;24.38;9.90;101450.72;5114935;28;20402;-77
2022/04/30 00:49:13;;;;;;;;;;;;;;;24.40;9.82;101446.91;5114977;28;19916;-79
2022/04/30 00:51:39;;;;;;;;;;;;;;;24.38;9.78;101458.09;5096675;28;19966;-78
2022/04/30 00:54:04;;;;;;;;;;;;;;;24.38;9.77;101453.44;5114521;28;20354;-78
2022/04/30 00:56:32;;;;;;;;;;;;;;;24.38;9.94;101458.91;5114757;28;19915;-76
2022/04/30 00:58:57;;;;;;;;;;;;;;;24.38;9.66;101458.91;5114380;28;20377;-78
2022/04/30 01:01:23;;;;;;;;;;;;;;;24.38;9.79;101460.81;5096157;28;19916;-79
2022/04/30 01:03:48;;;;;;;;;;;;;;;24.38;9.89;101467.09;5114988;28;19977;-77
2022/04/30 01:06:14;;;;;;;;;;;;;;;24.38;9.91;101460.81;5114817;28;20408;-78
2022/04/30 01:08:40;;;;;;;;;;;;;;;24.38;9.79;101460.81;5114710;28;19922;-77
2022/04/30 01:11:06;;;;;;;;;;;;;;;24.38;9.73;101460.81;5114858;28;19922;-77
2022/04/30 01:13:35;;;;;;;;;;;;;;;24.37;9.99;101461.91;5114674;28;19955;-79
2022/04/30 01:16:01;;;;;;;;;;;;;;;24.37;9.99;101464.66;5114707;28;19915;-77
2022/04/30 01:18:26;;;;;;;;;;;;;;;24.37;9.90;101470.13;5114594;28;20378;-77
2022/04/30 01:20:52;;;;;;;;;;;;;;;24.37;9.73;101464.66;5100238;28;19959;-76
2022/04/30 01:23:17;;;;;;;;;;;;;;;24.35;9.72;101466.78;5076163;28;19955;-78
2022/04/30 01:25:44;;;;;;;;;;;;;;;24.36;9.99;101474.72;5093813;28;20388;-77
2022/04/30 01:28:10;;;;;;;;;;;;;;;24.36;9.83;101476.66;5079228;28;19927;-77
2022/04/30 01:30:35;;;;;;;;;;;;;;;24.34;9.95;101478.81;5098436;28;19916;-79
2022/04/30 01:38:29;;;;;;;;;;;;;;;24.33;9.73;101463.47;5098000;28;19923;-80
2022/04/30 01:40:54;;;;;;;;;;;;;;;24.34;9.88;101465.97;5097992;28;19916;-79
2022/04/30 01:43:20;;;;;;;;;;;;;;;24.32;9.91;101479.06;5098082;28;19923;-78
2022/04/30 01:45:45;;;;;;;;;;;;;;;24.33;9.86;101469.75;5079822;28;20285;-79
2022/04/30 01:48:14;;;;;;;;;;;;;;;24.32;9.84;101465.41;5097465;28;20321;-77
2022/04/30 01:50:39;;;;;;;;;;;;;;;24.34;9.71;101465.16;5097919;28;19916;-78
2022/04/30 01:53:04;;;;;;;;;;;;;;;24.34;9.52;101456.94;5097968;28;20230;-76
2022/04/30 01:55:30;;;;;;;;;;;;;;;24.32;9.57;101454.47;5097692;28;20385;-77
2022/04/30 01:57:55;;;;;;;;;;;;;;;24.33;9.51;101452.56;5097085;28;19916;-77
2022/04/30 02:00:20;;;;;;;;;;;;;;;24.32;9.57;101456.38;5097727;28;19916;-78
2022/04/30 02:02:51;;;;;;;;;;;;;;;24.32;9.49;101453.66;5079566;28;19966;-78
2022/04/30 02:05:17;;;;;;;;;;;;;;;24.32;9.39;101456.38;5080528;28;19923;-77
2022/04/30 02:07:43;;;;;;;;;;;;;;;24.31;9.60;101452.00;5097344;28;19920;-79
2022/04/30 02:10:10;;;;;;;;;;;;;;;24.31;9.50;101449.25;5097180;28;19999;-76
2022/04/30 02:12:35;;;;;;;;;;;;;;;24.31;9.49;101454.72;5097964;28;19999;-78
2022/04/30 02:15:00;;;;;;;;;;;;;;;24.30;9.54;101442.13;5097081;28;19940;-77
2022/04/30 02:17:29;;;;;;;;;;;;;;;24.31;9.77;101452.00;5097429;28;19916;-77
2022/04/30 02:20:18;;;;;;;;;;;;;;;24.31;9.57;101452.00;5101757;28;19915;-76
2022/04/30 02:22:44;;;;;;;;;;;;;;;24.30;9.64;101442.13;5101987;28;19922;-77
2022/04/30 02:25:09;;;;;;;;;;;;;;;24.28;9.80;101444.31;5117341;28;20345;-77
2022/04/30 02:27:38;;;;;;;;;;;;;;;24.29;9.84;101446.78;5117462;28;19920;-77
2022/04/30 02:30:07;;;;;;;;;;;;;;;24.28;9.63;101444.31;5117508;28;19955;-78
2022/04/30 02:32:39;;;;;;;;;;;;;;;24.27;9.66;101443.47;5117351;28;19920;-78
2022/04/30 02:35:05;;;;;;;;;;;;;;;24.27;9.82;101435.28;5117058;28;20033;-77
2022/04/30 02:37:30;;;;;;;;;;;;;;;24.27;9.99;101438.03;5116885;28;19963;-77
2022/04/30 02:39:55;;;;;;;;;;;;;;;24.28;9.76;101441.56;5115950;28;19915;-76
2022/04/30 02:42:21;;;;;;;;;;;;;;;24.27;9.70;101439.94;5117310;28;19915;-77
2022/04/30 02:44:46;;;;;;;;;;;;;;;24.26;9.73;101430.88;5117621;28;20394;-75
2022/04/30 02:47:11;;;;;;;;;;;;;;;24.27;9.63;101426.28;5098744;28;19927;-77
2022/04/30 02:49:38;;;;;;;;;;;;;;;24.26;9.77;101430.88;5116704;28;19916;-77
2022/04/30 02:52:03;;;;;;;;;;;;;;;24.25;9.80;101434.72;5117059;28;19916;-77
2022/04/30 02:54:30;;;;;;;;;;;;;;;24.26;9.92;101430.88;5116457;28;19938;-78
2022/04/30 02:56:56;;;;;;;;;;;;;;;24.26;9.72;101427.34;5117009;28;19922;-78
2022/04/30 03:02:05;;;;;;;;;;;;;;;24.25;9.79;101431.13;5116956;28;19923;-79
2022/04/30 03:04:30;;;;;;;;;;;;;;;24.26;10.05;101427.34;5116986;28;19916;-76
2022/04/30 03:06:55;;;;;;;;;;;;;;;24.24;9.72;101422.13;5116612;28;19916;-78
2022/04/30 03:09:21;;;;;;;;;;;;;;;24.25;9.99;101428.41;5116524;28;19915;-75
2022/04/30 03:11:46;;;;;;;;;;;;;;;24.24;9.92;101421.31;5116377;28;19922;-78
2022/04/30 03:14:13;;;;;;;;;;;;;;;24.25;10.06;101431.13;5116644;28;20001;-77
2022/04/30 03:22:06;;;;;;;;;;;;;;;24.23;9.99;101419.66;5075501;28;20100;-78
2022/04/30 03:24:31;;;;;;;;;;;;;;;24.23;10.20;101416.91;5075660;28;19983;-76
2022/04/30 03:26:56;;;;;;;;;;;;;;;24.23;10.13;101425.13;5075503;28;19999;-78
2022/04/30 03:29:22;;;;;;;;;;;;;;;24.23;9.93;101416.91;5057505;28;19929;-77
2022/04/30 03:31:49;;;;;;;;;;;;;;;24.23;9.93;101416.91;5074989;28;19916;-77
2022/04/30 03:34:14;;;;;;;;;;;;;;;24.23;10.01;101419.66;5075459;28;19917;-76
2022/04/30 03:36:39;;;;;;;;;;;;;;;24.23;9.96;101420.47;5075099;28;19916;-77
2022/04/30 03:39:05;;;;;;;;;;;;;;;24.23;9.94;101419.66;5075108;28;19924;-80
2022/04/30 03:41:30;;;;;;;;;;;;;;;24.24;9.78;101421.31;5075087;28;19916;-77
2022/04/30 03:43:55;;;;;;;;;;;;;;;24.23;9.84;101416.91;5075398;28;20312;-77
2022/04/30 03:46:20;;;;;;;;;;;;;;;24.23;9.99;101414.19;5074989;28;19916;-77
2022/04/30 03:48:47;;;;;;;;;;;;;;;24.23;10.13;101419.66;5075128;28;19916;-79
2022/04/30 03:51:13;;;;;;;;;;;;;;;24.22;10.05;101418.84;5075281;28;20015;-77
2022/04/30 03:53:39;;;;;;;;;;;;;;;24.23;9.91;101419.66;5074891;28;19963;-78
2022/04/30 03:56:05;;;;;;;;;;;;;;;24.23;10.10;101420.47;5073613;28;20393;-76
2022/04/30 03:58:30;;;;;;;;;;;;;;;24.23;10.12;101417.72;5075074;28;19917;-77
2022/04/30 04:00:55;;;;;;;;;;;;;;;24.23;10.24;101420.47;5074984;28;19969;-76
2022/04/30 04:03:21;;;;;;;;;;;;;;;24.23;10.07;101412.28;5075039;28;20359;-77
2022/04/30 04:05:47;;;;;;;;;;;;;;;24.24;10.17;101421.31;5074893;28;19956;-76
2022/04/30 04:08:14;;;;;;;;;;;;;;;24.23;10.37;101422.38;5074526;28;19925;-77
2022/04/30 04:10:41;;;;;;;;;;;;;;;24.22;10.26;101418.84;5074648;28;19928;-77
2022/04/30 04:18:34;;;;;;;;;;;;;;;24.24;10.38;101421.31;5080386;28;20289;-78
2022/04/30 04:20:59;;;;;;;;;;;;;;;24.23;10.45;101419.66;5101700;28;20010;-78
2022/04/30 04:23:24;;;;;;;;;;;;;;;24.22;10.58;101413.38;5121151;28;19946;-77
2022/04/30 04:26:00;;;;;;;;;;;;;;;24.22;10.76;101423.47;5122840;28;19924;-78
2022/04/30 04:28:25;;;;;;;;;;;;;;;24.22;10.52;101424.28;5126217;28;19916;-79
2022/04/30 04:30:52;;;;;;;;;;;;;;;24.23;10.56;101419.66;5122843;28;20519;-77
2022/04/30 04:33:17;;;;;;;;;;;;;;;24.23;10.44;101417.72;5120757;28;19916;-78
2022/04/30 04:35:43;;;;;;;;;;;;;;;24.24;10.56;101416.66;5120334;28;19916;-77
2022/04/30 04:38:08;;;;;;;;;;;;;;;24.25;10.50;101412.03;5122966;28;19921;-78
2022/04/30 04:40:35;;;;;;;;;;;;;;;24.24;10.57;101415.84;5118624;28;19919;-78
2022/04/30 04:43:00;;;;;;;;;;;;;;;24.23;10.50;101417.72;5106287;28;19911;-77
2022/04/30 04:45:27;;;;;;;;;;;;;;;24.23;10.58;101419.66;5121786;28;20366;-78
2022/04/30 04:47:52;;;;;;;;;;;;;;;24.23;10.46;101414.19;5127114;28;19916;-77
2022/04/30 04:50:17;;;;;;;;;;;;;;;24.23;10.79;101414.19;5119817;28;19922;-77
2022/04/30 04:52:43;;;;;;;;;;;;;;;24.23;10.79;101415.00;5121130;28;20023;-79
2022/04/30 04:55:08;;;;;;;;;;;;;;;24.24;10.71;101411.19;5123126;28;19916;-78
2022/04/30 04:57:34;;;;;;;;;;;;;;;24.24;10.56;101404.94;5122198;28;19927;-78
2022/04/30 05:00:05;;;;;;;;;;;;;;;24.24;10.59;101410.38;5118537;28;20014;-78
2022/04/30 05:02:31;;;;;;;;;;;;;;;24.24;10.64;101404.94;5114959;28;20033;-77
2022/04/30 05:04:56;;;;;;;;;;;;;;;24.24;10.71;101403.00;5114963;28;20376;-77
2022/04/30 05:07:21;;;;;;;;;;;;;;;24.23;10.53;101403.25;5114543;28;20324;-77
2022/04/30 05:09:47;;;;;;;;;;;;;;;24.24;10.66;101415.84;5114242;28;19916;-77
2022/04/30 05:12:12;;;;;;;;;;;;;;;24.23;10.77;101403.25;5114446;28;19927;-78
2022/04/30 05:14:37;;;;;;;;;;;;;;;24.23;10.96;101411.47;5114141;28;20347;-76
2022/04/30 05:17:03;;;;;;;;;;;;;;;24.23;10.76;101406.81;5114442;28;19915;-78
2022/04/30 05:19:28;;;;;;;;;;;;;;;24.23;10.65;101404.09;5114436;28;20350;-76
2022/04/30 05:21:53;;;;;;;;;;;;;;;24.23;10.61;101406.00;5097910;28;20250;-79
2022/04/30 05:24:19;;;;;;;;;;;;;;;24.23;10.75;101403.25;5093892;28;19969;-78
2022/04/30 05:26:44;;;;;;;;;;;;;;;24.23;10.91;101406.00;5094517;28;20303;-80
2022/04/30 05:29:09;;;;;;;;;;;;;;;24.23;10.64;101397.81;5093619;28;20362;-77
2022/04/30 05:31:34;;;;;;;;;;;;;;;24.25;10.67;101401.09;5075866;28;20000;-78
2022/04/30 05:34:00;;;;;;;;;;;;;;;24.25;10.64;101396.47;5094105;28;20277;-77
2022/04/30 05:36:25;;;;;;;;;;;;;;;24.26;10.62;101391.84;5094102;28;19942;-78
2022/04/30 05:38:51;;;;;;;;;;;;;;;24.26;10.77;101392.66;5093956;28;19920;-77
2022/04/30 05:41:16;;;;;;;;;;;;;;;24.26;10.65;101391.84;5093812;28;20007;-77
2022/04/30 05:43:41;;;;;;;;;;;;;;;24.27;10.59;101382.56;5093957;28;20332;-76
2022/04/30 05:46:07;;;;;;;;;;;;;;;24.26;10.57;101383.63;5093829;28;19916;-78
2022/04/30 05:48:33;;;;;;;;;;;;;;;24.30;10.41;101390.22;5093457;28;20018;-77
2022/04/30 05:50:58;;;;;;;;;;;;;;;24.30;10.81;101390.22;5093611;28;19986;-77
2022/04/30 05:53:23;;;;;;;;;;;;;;;24.30;10.68;101388.34;5094549;28;19916;-79
2022/04/30 05:55:49;;;;;;;;;;;;;;;24.34;10.48;101388.66;5093770;28;19939;-77
2022/04/30 05:58:14;;;;;;;;;;;;;;;24.34;10.61;101381.28;5093785;28;20312;-78
2022/04/30 06:00:39;;;;;;;;;;;;;;;24.34;10.58;101378.56;5093772;28;19922;-76
2022/04/30 06:03:05;;;;;;;;;;;;;;;24.34;10.51;101372.28;5093482;28;19939;-78
2022/04/30 06:05:30;;;;;;;;;;;;;;;24.35;10.79;101368.44;5093635;28;19916;-75
2022/04/30 06:07:55;;;;;;;;;;;;;;;24.36;10.56;101370.91;5093486;28;20334;-77
2022/04/30 06:10:21;;;;;;;;;;;;;;;24.36;10.67;101364.63;5093722;28;19916;-77
2022/04/30 06:12:46;;;;;;;;;;;;;;;24.38;10.42;101365.19;5094350;28;19962;-76
2022/04/30 06:15:11;;;;;;;;;;;;;;;24.38;10.55;101368.75;5097232;28;19927;-77
2022/04/30 06:17:36;;;;;;;;;;;;;;;24.40;10.72;101368.50;5096828;28;20313;-78
2022/04/30 06:20:02;;;;;;;;;;;;;;;24.37;10.55;101366.31;5097204;28;19920;-79
2022/04/30 06:22:27;;;;;;;;;;;;;;;24.38;10.62;101363.28;5116444;28;20328;-78
2022/04/30 06:24:52;;;;;;;;;;;;;;;24.39;10.69;101364.13;5117227;28;20371;-79
2022/04/30 06:27:18;;;;;;;;;;;;;;;24.40;10.69;101360.28;5099075;28;19920;-77
2022/04/30 06:29:44;;;;;;;;;;;;;;;24.41;10.83;101361.16;5117069;28;20328;-78
2022/04/30 06:32:09;;;;;;;;;;;;;;;24.41;10.53;101355.69;5117540;28;19960;-76
2022/04/30 06:34:34;;;;;;;;;;;;;;;24.40;10.51;101357.56;5116965;28;20293;-78
2022/04/30 06:36:59;;;;;;;;;;;;;;;24.40;10.59;101360.28;5117272;28;20006;-77
2022/04/30 06:39:25;;;;;;;;;;;;;;;24.40;10.63;101352.09;5117708;28;20361;-78
2022/04/30 06:41:50;;;;;;;;;;;;;;;24.42;10.81;101346.38;5117220;28;19916;-76
2022/04/30 06:44:15;;;;;;;;;;;;;;;24.42;10.87;101354.59;5116787;28;20389;-77
2022/04/30 06:46:41;;;;;;;;;;;;;;;24.43;10.61;101351.59;5116944;28;19916;-76
2022/04/30 06:49:06;;;;;;;;;;;;;;;24.45;10.89;101352.16;5116771;28;19922;-76
2022/04/30 06:51:31;;;;;;;;;;;;;;;24.47;10.75;101360.09;5116951;28;19920;-78
2022/04/30 06:59:24;;;;;;;;;;;;;;;24.46;10.82;101342.06;5116738;28;19965;-78
2022/04/30 07:01:59;;;;;;;;;;;;;;;24.47;10.89;101347.25;5116531;28;19915;-76
2022/04/30 07:04:24;;;;;;;;;;;;;;;24.48;10.91;101332.53;5116684;28;20328;-77
2022/04/30 07:06:50;;;;;;;;;;;;;;;24.47;11.11;101333.59;5116484;28;19920;-79
2022/04/30 07:09:16;;;;;;;;;;;;;;;24.49;11.07;101333.34;5116555;28;19938;-77
2022/04/30 07:11:41;;;;;;;;;;;;;;;24.49;11.17;101336.06;5116874;28;19916;-79
2022/04/30 07:14:06;;;;;;;;;;;;;;;24.50;10.97;101332.25;5117137;28;20007;-78
2022/04/30 07:16:32;;;;;;;;;;;;;;;24.50;11.03;101324.88;5117510;28;20377;-79
2022/04/30 07:18:57;;;;;;;;;;;;;;;24.50;11.20;101333.09;5116720;28;20044;-77
2022/04/30 07:21:24;;;;;;;;;;;;;;;24.52;11.26;101336.38;5108249;28;19999;-78
2022/04/30 07:23:50;;;;;;;;;;;;;;;24.52;11.05;101325.44;5096389;28;19924;-75
2022/04/30 07:26:16;;;;;;;;;;;;;;;24.51;10.99;101326.56;5096126;28;19923;-77
2022/04/30 07:28:41;;;;;;;;;;;;;;;24.52;11.12;101317.25;5096730;28;20350;-76
2022/04/30 07:31:08;;;;;;;;;;;;;;;24.54;11.01;101323.34;5096405;28;19970;-77
2022/04/30 07:33:33;;;;;;;;;;;;;;;24.48;11.23;101313.41;5096616;28;19961;-78
2022/04/30 07:35:59;;;;;;;;;;;;;;;24.54;11.23;101317.88;5097005;28;19916;-77
2022/04/30 07:38:24;;;;;;;;;;;;;;;24.53;11.32;101313.44;5096343;28;20380;-79
2022/04/30 07:40:49;;;;;;;;;;;;;;;24.55;11.24;101314.03;5096390;28;19923;-77
2022/04/30 07:43:14;;;;;;;;;;;;;;;24.56;11.31;101312.16;5078781;28;19920;-79
2022/04/30 07:45:40;;;;;;;;;;;;;;;24.58;11.24;101307.25;5096845;28;19916;-78
2022/04/30 07:48:05;;;;;;;;;;;;;;;24.58;11.33;101301.78;5096891;28;19916;-79
2022/04/30 07:50:35;;;;;;;;;;;;;;;24.60;11.35;101304.25;5096542;28;19969;-77
2022/04/30 07:53:01;;;;;;;;;;;;;;;24.60;11.54;101296.06;5095857;28;19916;-77
2022/04/30 07:55:28;;;;;;;;;;;;;;;24.60;11.46;101298.78;5095229;28;20485;-77
2022/04/30 07:57:53;;;;;;;;;;;;;;;24.61;11.39;101301.28;5096119;28;20362;-78
2022/04/30 08:00:18;;;;;;;;;;;;;;;24.62;11.49;101293.88;5095268;28;19917;-77
2022/04/30 08:02:44;;;;;;;;;;;;;;;24.62;11.39;101296.63;5095371;28;19970;-77
2022/04/30 08:05:09;;;;;;;;;;;;;;;24.60;11.46;101288.69;5095892;28;19916;-79
2022/04/30 08:07:34;;;;;;;;;;;;;;;24.61;11.26;101289.50;5094903;28;20410;-77
2022/04/30 08:10:03;;;;;;;;;;;;;;;24.63;11.35;101287.31;5095483;28;19923;-78
2022/04/30 08:12:28;;;;;;;;;;;;;;;24.63;11.17;101290.91;5095447;28;19924;-78
2022/04/30 08:14:54;;;;;;;;;;;;;;;24.64;11.36;101288.97;5077155;28;19920;-77
2022/04/30 08:17:19;;;;;;;;;;;;;;;24.64;11.35;101288.97;5095316;28;20301;-80
2022/04/30 08:19:45;;;;;;;;;;;;;;;24.65;11.26;101279.72;5095869;28;20369;-77
2022/04/30 08:22:10;;;;;;;;;;;;;;;24.65;11.41;101274.25;5109077;28;20033;-79
2022/04/30 08:24:35;;;;;;;;;;;;;;;24.67;11.17;101272.06;5115350;28;19924;-77
2022/04/30 08:27:00;;;;;;;;;;;;;;;24.65;11.24;101274.25;5115208;28;19981;-79
2022/04/30 08:29:28;;;;;;;;;;;;;;;24.64;11.38;101267.94;5115280;28;19922;-77
2022/04/30 08:31:54;;;;;;;;;;;;;;;24.64;11.45;101267.13;5115657;28;19984;-79
2022/04/30 08:34:19;;;;;;;;;;;;;;;24.65;11.28;101263.31;5115290;28;19915;-76
2022/04/30 08:36:45;;;;;;;;;;;;;;;24.65;11.49;101257.84;5097310;28;19985;-78
2022/04/30 08:39:10;;;;;;;;;;;;;;;24.64;11.26;101262.47;5114917;28;20324;-77
2022/04/30 08:41:35;;;;;;;;;;;;;;;24.66;11.48;101259.47;5114613;28;19973;-77
2022/04/30 08:44:01;;;;;;;;;;;;;;;24.65;11.40;101249.66;5096695;28;19962;-77
2022/04/30 08:46:26;;;;;;;;;;;;;;;24.64;11.22;101251.53;5114534;28;20395;-78
2022/04/30 08:48:51;;;;;;;;;;;;;;;24.65;11.53;101246.91;5114865;28;19920;-75
2022/04/30 08:51:17;;;;;;;;;;;;;;;24.65;11.48;101244.19;5114863;28;20414;-78
2022/04/30 08:53:42;;;;;;;;;;;;;;;24.65;11.57;101244.19;5114522;28;19919;-76
2022/04/30 08:56:07;;;;;;;;;;;;;;;24.65;11.38;101239.53;5114913;28;20044;-77
2022/04/30 08:58:33;;;;;;;;;;;;;;;24.66;11.35;101243.06;5114577;28;19916;-76
2022/04/30 09:00:59;;;;;;;;;;;;;;;24.66;11.36;101237.59;5115257;28;19969;-77
2022/04/30 09:03:25;;;;;;;;;;;;;;;24.66;11.62;101222.03;5114610;28;20415;-79
2022/04/30 09:05:50;;;;;;;;;;;;;;;24.66;11.60;101234.88;5114730;28;19985;-76
2022/04/30 09:08:16;;;;;;;;;;;;;;;24.67;11.27;101228.34;5114141;28;19916;-78
2022/04/30 09:10:42;;;;;;;;;;;;;;;24.66;11.48;101235.69;5114294;28;19916;-76
2022/04/30 09:13:07;;;;;;;;;;;;;;;24.66;11.53;101232.13;5114381;28;19916;-78
2022/04/30 09:15:33;;;;;;;;;;;;;;;24.67;11.47;101234.63;5114489;28;19916;-76
2022/04/30 09:17:58;;;;;;;;;;;;;;;24.68;11.46;101229.97;5114587;28;19969;-78
2022/04/30 09:20:24;;;;;;;;;;;;;;;24.67;11.30;101231.06;5114847;28;20295;-77
2022/04/30 09:22:49;;;;;;;;;;;;;;;24.67;11.27;101228.34;5096524;28;19985;-77
2022/04/30 09:25:17;;;;;;;;;;;;;;;24.67;11.41;101228.34;5094010;28;19920;-76
2022/04/30 09:27:51;;;;;;;;;;;;;;;24.67;11.35;101228.34;5094051;28;19920;-78
2022/04/30 09:30:17;;;;;;;;;;;;;;;24.68;11.46;101224.50;5076303;28;19916;-78
2022/04/30 09:32:42;;;;;;;;;;;;;;;24.67;11.34;101223.69;5076167;28;20006;-77
2022/04/30 09:38:04;;;;;;;;;;;;;;;24.69;11.46;101220.69;5093837;28;19923;-77
2022/04/30 09:40:30;;;;;;;;;;;;;;;24.68;11.42;101195.28;5093611;28;19920;-79
2022/04/30 09:42:56;;;;;;;;;;;;;;;24.70;11.22;101212.22;5093901;28;19923;-76
2022/04/30 09:45:24;;;;;;;;;;;;;;;24.72;11.20;101199.13;5093971;28;19955;-78
2022/04/30 09:47:49;;;;;;;;;;;;;;;24.71;11.34;101202.13;5094523;28;19961;-77
2022/04/30 09:55:44;;;;;;;;;;;;;;;24.72;11.22;101206.50;5097753;28;19954;-78
2022/04/30 09:58:10;;;;;;;;;;;;;;;24.71;11.35;101207.59;5079700;28;19951;-75
2022/04/30 10:00:35;;;;;;;;;;;;;;;24.70;11.35;101208.69;5097620;28;20005;-77
2022/04/30 10:03:01;;;;;;;;;;;;;;;24.70;11.38;101212.22;5097484;28;20270;-77
2022/04/30 10:05:26;;;;;;;;;;;;;;;24.70;11.46;101200.50;5097444;28;19916;-77
2022/04/30 10:07:51;;;;;;;;;;;;;;;24.70;11.10;101200.50;5097585;28;19923;-77
2022/04/30 10:10:19;;;;;;;;;;;;;;;24.68;11.48;101191.69;5078972;28;19966;-78
2022/04/30 10:13:01;;;;;;;;;;;;;;;24.66;11.53;101191.16;5079304;28;19917;-78
2022/04/30 10:15:41;;;;;;;;;;;;;;;24.66;11.29;101177.47;5079210;28;19939;-75
2022/04/30 10:18:09;;;;;;;;;;;;;;;24.66;11.49;101174.75;5097226;28;19917;-78
2022/04/30 10:20:35;;;;;;;;;;;;;;;24.65;11.28;101170.38;5097232;28;19923;-78
2022/04/30 10:23:01;;;;;;;;;;;;;;;24.64;11.44;101174.19;5114969;28;19947;-77
2022/04/30 10:25:31;;;;;;;;;;;;;;;24.64;11.50;101168.72;5116995;28;20370;-77
2022/04/30 10:27:56;;;;;;;;;;;;;;;24.62;11.36;101170.91;5098890;28;19915;-75
2022/04/30 10:30:27;;;;;;;;;;;;;;;24.64;11.68;101168.72;5099354;28;20172;-78
2022/04/30 10:33:02;;;;;;;;;;;;;;;24.64;11.54;101164.06;5117849;28;19943;-79
2022/04/30 10:35:34;;;;;;;;;;;;;;;24.63;11.63;101156.97;5117366;28;19916;-76
2022/04/30 10:38:07;;;;;;;;;;;;;;;24.64;11.73;101157.81;5098884;28;20320;-78
2022/04/30 10:40:41;;;;;;;;;;;;;;;24.63;11.60;101148.78;5098877;28;19926;-78
2022/04/30 10:43:35;;;;;;;;;;;;;;;24.61;11.74;101152.84;5116903;28;19915;-76
2022/04/30 10:46:00;;;;;;;;;;;;;;;24.60;11.82;101151.22;5114688;28;19962;-76
2022/04/30 10:48:26;;;;;;;;;;;;;;;24.60;11.51;101152.03;5116951;28;19959;-77
2022/04/30 10:51:09;;;;;;;;;;;;;;;24.59;11.82;101150.38;5116626;28;20262;-77
2022/04/30 10:53:35;;;;;;;;;;;;;;;24.59;11.82;101149.56;5116953;28;19998;-77
2022/04/30 10:56:01;;;;;;;;;;;;;;;24.59;11.83;101149.56;5098714;28;20304;-76
2022/04/30 10:58:27;;;;;;;;;;;;;;;24.61;11.96;101150.13;5117073;28;19919;-76
2022/04/30 11:00:53;;;;;;;;;;;;;;;24.59;11.92;101139.44;5115430;28;20015;-77
2022/04/30 11:03:18;;;;;;;;;;;;;;;24.59;12.01;101136.72;5116881;28;20006;-78
2022/04/30 11:05:48;;;;;;;;;;;;;;;24.60;11.74;101140.28;5098355;28;20380;-76
2022/04/30 11:08:13;;;;;;;;;;;;;;;24.59;11.98;101144.09;5116621;28;19963;-77
2022/04/30 11:10:47;;;;;;;;;;;;;;;24.59;12.03;101127.69;5116687;28;19963;-77
2022/04/30 11:13:12;;;;;;;;;;;;;;;24.57;11.87;101127.16;5116325;28;19919;-76
2022/04/30 11:15:38;;;;;;;;;;;;;;;24.60;12.04;101123.91;5116329;28;19916;-78
2022/04/30 11:18:03;;;;;;;;;;;;;;;24.58;11.88;101131.50;5116421;28;19919;-77
2022/04/30 11:20:28;;;;;;;;;;;;;;;24.58;11.85;101137.81;5116227;28;19923;-79
2022/04/30 11:22:54;;;;;;;;;;;;;;;24.58;11.95;101131.50;5100844;28;19927;-77
2022/04/30 11:25:20;;;;;;;;;;;;;;;24.58;11.84;101131.50;5095478;28;19950;-77
2022/04/30 11:27:45;;;;;;;;;;;;;;;24.58;11.89;101132.34;5095527;28;19927;-77
2022/04/30 11:30:10;;;;;;;;;;;;;;;24.59;12.07;101127.69;5096532;28;19916;-77
2022/04/30 11:32:36;;;;;;;;;;;;;;;24.56;11.95;101129.06;5095535;28;20382;-76
2022/04/30 11:35:01;;;;;;;;;;;;;;;24.54;11.82;101115.66;5095643;28;19995;-78
2022/04/30 11:37:27;;;;;;;;;;;;;;;24.57;12.03;101121.69;5077369;28;19965;-76
2022/04/30 11:39:52;;;;;;;;;;;;;;;24.57;12.05;101124.41;5095249;28;19927;-77
2022/04/30 11:42:23;;;;;;;;;;;;;;;24.56;11.92;101131.81;5095236;28;19923;-77
2022/04/30 11:44:48;;;;;;;;;;;;;;;24.55;12.03;101125.50;5095497;28;19923;-77
2022/04/30 11:47:13;;;;;;;;;;;;;;;24.55;11.79;101127.41;5077305;28;19916;-77
2022/04/30 11:49:38;;;;;;;;;;;;;;;24.54;12.01;101123.03;5095009;28;19952;-78
2022/04/30 11:52:04;;;;;;;;;;;;;;;24.54;11.92;101123.88;5095316;28;19938;-77
2022/04/30 11:54:29;;;;;;;;;;;;;;;24.55;11.91;101116.47;5077312;28;20308;-77
2022/04/30 11:56:56;;;;;;;;;;;;;;;24.53;12.09;101113.97;5095326;28;19920;-77
2022/04/30 11:59:31;;;;;;;;;;;;;;;24.53;11.91;101116.72;5077115;28;20305;-79
2022/04/30 12:02:03;;;;;;;;;;;;;;;24.52;11.95;101109.59;5077537;28;19916;-75
2022/04/30 12:04:33;;;;;;;;;;;;;;;24.52;12.12;101106.84;5094909;28;19953;-77
2022/04/30 12:06:58;;;;;;;;;;;;;;;24.50;12.15;101114.50;5095195;28;19942;-78
2022/04/30 12:09:27;;;;;;;;;;;;;;;24.51;12.04;101109.88;5095225;28;20019;-78
2022/04/30 12:11:53;;;;;;;;;;;;;;;24.50;12.04;101111.78;5094794;28;19985;-78
2022/04/30 12:14:19;;;;;;;;;;;;;;;24.50;12.16;101114.50;5094711;28;19924;-75
2022/04/30 12:16:44;;;;;;;;;;;;;;;24.49;12.09;101112.88;5094623;28;19946;-77
2022/04/30 12:25:07;;;;;;;;;;;;;;;24.46;12.30;101105.19;5080832;28;20016;-78
2022/04/30 12:27:32;;;;;;;;;;;;;;;24.45;12.30;101102.72;5056227;28;19924;-76
2022/04/30 12:30:01;;;;;;;;;;;;;;;24.46;12.24;101105.19;5074134;28;19916;-77
2022/04/30 12:32:27;;;;;;;;;;;;;;;24.48;12.25;101102.19;5074326;28;20004;-77
2022/04/30 12:34:53;;;;;;;;;;;;;;;24.46;12.22;101091.53;5074296;28;20039;-76
2022/04/30 12:37:18;;;;;;;;;;;;;;;24.48;12.10;101094.00;5074153;28;19916;-79
2022/04/30 12:39:43;;;;;;;;;;;;;;;24.47;12.33;101087.69;5056151;28;19999;-78
2022/04/30 12:42:11;;;;;;;;;;;;;;;24.48;12.25;101081.16;5074312;28;20259;-79
2022/04/30 12:44:36;;;;;;;;;;;;;;;24.48;12.04;101089.34;5074114;28;19974;-76
2022/04/30 12:47:01;;;;;;;;;;;;;;;24.48;12.10;101091.28;5074277;28;20378;-76
2022/04/30 12:49:27;;;;;;;;;;;;;;;24.46;12.17;101091.53;5074030;28;20371;-77
2022/04/30 12:51:52;;;;;;;;;;;;;;;24.45;12.18;101087.16;5074139;28;20363;-78
2022/04/30 12:54:17;;;;;;;;;;;;;;;24.45;11.96;101081.69;5074297;28;19939;-79
2022/04/30 12:56:43;;;;;;;;;;;;;;;24.44;12.09;101082.78;5074356;28;19924;-77
2022/04/30 12:59:09;;;;;;;;;;;;;;;24.43;12.14;101083.84;5073793;28;20252;-76
2022/04/30 13:01:34;;;;;;;;;;;;;;;24.44;12.10;101082.78;5074250;28;19923;-77
2022/04/30 13:04:00;;;;;;;;;;;;;;;24.45;12.21;101067.22;5074102;28;20322;-78
2022/04/30 13:06:25;;;;;;;;;;;;;;;24.44;12.09;101080.06;5073822;28;19924;-76
2022/04/30 13:14:18;;;;;;;;;;;;;;;24.44;12.17;101066.41;5074362;28;20328;-77
2022/04/30 13:16:43;;;;;;;;;;;;;;;24.42;11.92;101068.53;5074043;28;19963;-77
2022/04/30 13:19:10;;;;;;;;;;;;;;;24.42;12.14;101065.81;5073993;28;19916;-77